Accueil
METAR-TAF:

METAR-TAF

Aéroports :

Inukjuak, Québec, Canada

latitude: 58-28N, longitude: 078-05W, altitude: 25 m

Observation

Le bulletin a été fait il y a 20 minutes, à 10:00 UTC
Vent 4 kt de est/nord-est
Température -18°C
Humidité 84%
Pression 1006 hPa
Visibilité: 14.5 km
Ciel clair

METAR: CYPH 181000Z AUTO 06004KT 9SM CLR M18/M20 A2972 RMK SLP070

Heure: 05:20 (10:20 UTC)

Prévision

Le bulletin a été fait il y a 2 heures et 0 minutes, à 08:20 UTC
Prévision valable du 18 à 08 UTC au 18 à 18 UTC
Vent 3 kt de direction variable
Visibilité: 10 km
Nuages fragmentés à une hauteur de 4000 ft
Temporairement
du 18 à 08 UTC au 18 à 14 UTC
Visibilité: 6.4 km
Ciel couvert à une hauteur de 2000 ft
neige faible
Evoluant progressivement
du 18 à 14 UTC au 18 à 16 UTC
Vent 7 kt de est/nord-est

TAF: CYPH 180820Z 1808/1818 VRB03KT P6SM BKN040 TEMPO 1808/1814 4SM -SN OVC020 BECMG 1814/1816 07007KT RMK FCST BASED ON AUTO OBS. NXT FCST BY 181200Z

Observations et prévisions météorologiques de plus de 4000 aéroports (messages METAR et TAF).

Les stations disponibles sont représentées par des disques jaunes et rouges sur la carte.

Passer la souris dessus pour voir le nom de la station.

Cliquer dessus pour voir les observations et prévisions météorologiques.

Pour changer de carte: cliquez sur les boutons verts avec une croix noire pour zoomer, sur le bouton vert avec un tiret pour effectuer un zoom arrière, ou sur les flèches vertes pour les cartes adjacentes.


METAR-TAF: